Terminal Aerodrome Forecast
Issued by NWS Central Illinois

Home | Current Version | Previous Version | Text Only | Print | Product List | Glossary On
Versions: 1 2 3 4 5 6 7 8 9 10 11 12 13 14 15 16 17 18 19 20 21 22
896
FTUS43 KILX 261129
TAFSPI
TAF
KSPI 261129Z 2612/2712 02004KT P6SM SCT060
     FM261400 05006KT P6SM SCT045
     FM270900 VRB03KT 4SM BR FEW015=

USA.gov is the U.S. government's official web portal to all federal, state and local government web resources and services.